createdAt,value
2019-02-25T00:00:15.179Z,5.20
2019-02-25T00:02:43.258Z,5.13
2019-02-25T00:05:11.356Z,5.60
2019-02-25T00:07:39.439Z,6.30
2019-02-25T00:10:08.834Z,6.53
2019-02-25T00:12:36.920Z,6.27
2019-02-25T00:15:06.592Z,6.30
2019-02-25T00:17:35.201Z,6.50
2019-02-25T00:20:04.567Z,6.50
2019-02-25T00:22:32.636Z,6.03
2019-02-25T00:25:00.740Z,6.50
2019-02-25T00:27:29.777Z,5.27
2019-02-25T00:29:57.868Z,6.30
2019-02-25T00:32:26.051Z,6.50
2019-02-25T00:34:54.153Z,4.70
2019-02-25T00:37:22.292Z,5.50
2019-02-25T00:39:50.409Z,5.93
2019-02-25T00:42:18.570Z,6.30
2019-02-25T00:44:46.717Z,5.70
2019-02-25T00:47:14.874Z,4.90
2019-02-25T00:49:42.976Z,5.40
2019-02-25T00:52:11.062Z,5.77
2019-02-25T00:54:39.181Z,5.07
2019-02-25T00:57:08.957Z,5.77
2019-02-25T00:59:37.224Z,5.40
2019-02-25T01:02:05.323Z,5.87
2019-02-25T01:04:33.431Z,6.50
2019-02-25T01:07:01.542Z,6.10
2019-02-25T01:09:29.658Z,5.77
2019-02-25T01:11:57.826Z,6.17
2019-02-25T01:14:26.021Z,6.00
2019-02-25T01:16:54.108Z,6.13
2019-02-25T01:19:22.192Z,5.90
2019-02-25T01:21:50.311Z,5.67
2019-02-25T01:24:18.389Z,6.00
2019-02-25T01:26:46.506Z,5.47
2019-02-25T01:29:14.622Z,5.17
2019-02-25T01:31:42.807Z,5.57
2019-02-25T01:34:10.884Z,5.93
2019-02-25T01:36:38.971Z,5.20
2019-02-25T01:39:07.862Z,5.30
2019-02-25T01:41:35.996Z,5.10
2019-02-25T01:44:04.164Z,5.40
2019-02-25T01:46:32.261Z,5.57
2019-02-25T01:49:00.355Z,5.70
2019-02-25T01:51:28.424Z,4.83
2019-02-25T01:53:56.508Z,5.27
2019-02-25T01:56:24.596Z,5.10
2019-02-25T01:58:52.745Z,5.67
2019-02-25T02:01:20.821Z,5.60
2019-02-25T02:03:48.929Z,6.20
2019-02-25T02:06:17.016Z,5.50
2019-02-25T02:08:45.128Z,5.70
2019-02-25T02:11:13.217Z,5.10
2019-02-25T02:13:41.340Z,5.53
2019-02-25T02:16:09.420Z,5.37
2019-02-25T02:18:37.528Z,5.30
2019-02-25T02:21:05.602Z,5.90
2019-02-25T02:23:33.715Z,4.83
2019-02-25T02:26:01.782Z,5.73
2019-02-25T02:28:29.879Z,5.40
2019-02-25T02:30:57.981Z,5.30
2019-02-25T02:33:26.160Z,5.17
2019-02-25T02:35:54.232Z,5.30
2019-02-25T02:38:22.314Z,5.43
2019-02-25T02:40:50.469Z,5.77
2019-02-25T02:43:18.594Z,6.17
2019-02-25T02:45:48.242Z,5.67
2019-02-25T02:48:24.020Z,6.63
2019-02-25T02:50:52.229Z,5.77
2019-02-25T02:53:20.357Z,5.90
2019-02-25T02:55:48.496Z,5.70
2019-02-25T02:58:16.635Z,6.20
2019-02-25T03:00:44.757Z,5.77
2019-02-25T03:03:12.861Z,5.53
2019-02-25T03:05:41.002Z,6.17
2019-02-25T03:08:09.091Z,6.00
2019-02-25T03:10:37.207Z,5.97
2019-02-25T03:13:05.339Z,6.10
2019-02-25T03:15:33.521Z,6.23
2019-02-25T03:18:01.676Z,6.03
2019-02-25T03:20:29.794Z,6.00
2019-02-25T03:22:57.926Z,5.70
2019-02-25T03:25:26.115Z,6.03
2019-02-25T03:27:54.198Z,5.60
2019-02-25T03:30:22.366Z,5.77
2019-02-25T03:32:50.563Z,6.93
2019-02-25T03:35:18.739Z,5.40
2019-02-25T03:37:46.924Z,5.40
2019-02-25T03:40:15.956Z,5.37
2019-02-25T03:42:44.119Z,6.10
2019-02-25T03:45:15.850Z,5.40
2019-02-25T03:47:44.028Z,5.50
2019-02-25T03:50:12.238Z,7.07
2019-02-25T03:52:40.312Z,5.87
2019-02-25T03:55:10.016Z,5.83
2019-02-25T03:57:38.109Z,5.47
2019-02-25T04:00:07.744Z,5.40
2019-02-25T04:02:35.861Z,5.43
2019-02-25T04:05:05.060Z,5.23
2019-02-25T04:07:33.228Z,5.03
2019-02-25T04:10:01.342Z,6.33
2019-02-25T04:12:29.467Z,5.77
2019-02-25T04:14:57.615Z,5.30
2019-02-25T04:17:25.717Z,5.70
2019-02-25T04:19:53.895Z,5.33
2019-02-25T04:22:22.044Z,5.50
2019-02-25T04:24:50.239Z,5.83
2019-02-25T04:27:18.328Z,5.70
2019-02-25T04:29:46.489Z,5.83
2019-02-25T04:32:14.597Z,5.30
2019-02-25T04:34:42.737Z,5.87
2019-02-25T04:37:10.883Z,5.03
2019-02-25T04:39:38.980Z,5.60
2019-02-25T04:42:07.096Z,4.70
2019-02-25T04:44:35.199Z,5.13
2019-02-25T04:47:03.294Z,5.57
2019-02-25T04:49:31.377Z,5.60
2019-02-25T04:51:59.498Z,5.17
2019-02-25T04:54:27.600Z,5.50
2019-02-25T04:56:55.681Z,5.53
2019-02-25T04:59:23.752Z,5.50
2019-02-25T05:01:51.834Z,5.20
2019-02-25T05:04:19.923Z,5.10
2019-02-25T05:06:48.063Z,5.00
2019-02-25T05:09:16.140Z,5.20
2019-02-25T05:11:44.600Z,5.30
2019-02-25T05:14:12.684Z,5.73
2019-02-25T05:16:40.780Z,5.47
2019-02-25T05:19:08.851Z,5.03
2019-02-25T05:21:36.940Z,5.30
2019-02-25T05:24:05.003Z,5.20
2019-02-25T05:26:33.110Z,6.23
2019-02-25T05:29:01.202Z,5.30
2019-02-25T05:31:29.402Z,5.10
2019-02-25T05:33:57.468Z,5.63
2019-02-25T05:36:25.561Z,5.03
2019-02-25T05:38:53.679Z,5.27
2019-02-25T05:41:21.769Z,5.93
2019-02-25T05:43:49.849Z,5.87
2019-02-25T05:46:17.928Z,6.17
2019-02-25T05:48:46.017Z,5.53
2019-02-25T05:51:14.098Z,6.00
2019-02-25T05:53:42.166Z,5.90
2019-02-25T05:56:10.301Z,6.00
2019-02-25T05:58:38.388Z,5.83
2019-02-25T06:01:06.475Z,5.90
2019-02-25T06:03:34.555Z,6.13
2019-02-25T06:06:02.691Z,6.00
2019-02-25T06:08:30.811Z,5.53
2019-02-25T06:10:58.951Z,5.90
2019-02-25T06:13:27.026Z,6.47
2019-02-25T06:15:55.150Z,6.03
2019-02-25T06:18:23.217Z,6.33
2019-02-25T06:20:51.304Z,5.77
2019-02-25T06:23:19.410Z,5.90
2019-02-25T06:25:47.500Z,6.30
2019-02-25T06:28:15.570Z,5.90
2019-02-25T06:30:43.654Z,5.77
2019-02-25T06:33:11.739Z,5.80
2019-02-25T06:35:39.838Z,6.43
2019-02-25T06:38:07.926Z,7.57
2019-02-25T06:40:36.013Z,6.67
2019-02-25T06:43:04.099Z,6.77
2019-02-25T06:45:33.712Z,5.30
2019-02-25T06:48:01.929Z,5.90
2019-02-25T06:50:30.030Z,5.70
2019-02-25T06:52:58.115Z,5.23
2019-02-25T06:55:27.837Z,5.60
2019-02-25T06:57:55.922Z,5.83
2019-02-25T07:00:24.113Z,5.20
2019-02-25T07:02:52.258Z,4.77
2019-02-25T07:05:25.131Z,4.67
2019-02-25T07:07:57.703Z,4.60
2019-02-25T07:10:45.499Z,4.90
2019-02-25T07:13:17.702Z,5.37
2019-02-25T07:15:47.452Z,5.07
2019-02-25T07:18:17.207Z,6.20
2019-02-25T07:20:47.003Z,5.73
2019-02-25T07:23:22.948Z,5.40
2019-02-25T07:26:01.914Z,6.37
2019-02-25T07:28:43.679Z,5.73
2019-02-25T07:31:29.539Z,6.20
2019-02-25T07:33:59.252Z,6.33
2019-02-25T07:36:47.367Z,6.43
2019-02-25T07:39:17.098Z,6.43
2019-02-25T07:41:46.819Z,6.33
2019-02-25T07:44:16.535Z,6.10
2019-02-25T07:46:55.583Z,6.10
2019-02-25T07:49:25.315Z,6.23
2019-02-25T07:51:55.036Z,6.40
2019-02-25T07:54:30.463Z,7.00
2019-02-25T07:57:00.186Z,6.60
2019-02-25T07:59:39.211Z,7.13
2019-02-25T08:02:11.927Z,7.00
2019-02-25T08:04:50.540Z,6.60
2019-02-25T08:07:26.502Z,6.33
2019-02-25T08:09:56.226Z,8.13
2019-02-25T08:12:35.204Z,7.30
2019-02-25T08:15:05.007Z,8.97
2019-02-25T08:17:40.691Z,6.97
2019-02-25T08:20:19.500Z,6.90
2019-02-25T08:23:07.295Z,7.40
2019-02-25T08:25:55.387Z,6.57
2019-02-25T08:28:41.771Z,6.33
2019-02-25T08:31:20.521Z,6.33
2019-02-25T08:33:56.432Z,6.20
2019-02-25T08:36:44.180Z,6.63
2019-02-25T08:39:26.278Z,6.47
2019-02-25T08:41:59.043Z,7.30
2019-02-25T08:44:28.766Z,7.80
2019-02-25T08:47:04.566Z,8.10
2019-02-25T08:49:34.319Z,8.07
2019-02-25T08:52:02.427Z,8.10
2019-02-25T08:54:30.603Z,9.37
2019-02-25T08:56:58.671Z,9.40
2019-02-25T08:59:26.752Z,8.33
2019-02-25T09:01:54.823Z,8.63
2019-02-25T09:04:22.938Z,8.93
2019-02-25T09:06:51.008Z,8.30
2019-02-25T09:09:19.122Z,7.63
2019-02-25T09:11:47.207Z,7.63
2019-02-25T09:14:15.306Z,8.07
2019-02-25T09:16:43.396Z,6.40
2019-02-25T09:19:11.477Z,7.33
2019-02-25T09:21:39.596Z,8.60
2019-02-25T09:24:07.671Z,7.90
2019-02-25T09:26:35.740Z,7.03
2019-02-25T09:29:03.936Z,6.33
2019-02-25T09:31:31.999Z,6.80
2019-02-25T09:34:00.317Z,5.50
2019-02-25T09:36:28.397Z,5.50
2019-02-25T09:38:56.833Z,5.00
2019-02-25T09:41:29.937Z,4.47
2019-02-25T09:43:54.955Z,4.90
2019-02-25T09:46:23.051Z,4.20
2019-02-25T09:48:51.123Z,4.20
2019-02-25T09:51:19.202Z,5.00
2019-02-25T09:53:47.280Z,4.43
2019-02-25T09:56:15.366Z,4.63
2019-02-25T09:58:43.433Z,4.80
2019-02-25T10:01:11.579Z,4.10
2019-02-25T10:03:39.824Z,4.63
2019-02-25T10:06:07.896Z,3.73
2019-02-25T10:08:35.979Z,3.90
2019-02-25T10:11:04.067Z,3.50
2019-02-25T10:13:32.142Z,3.83
2019-02-25T10:16:00.223Z,3.73
2019-02-25T10:18:28.307Z,2.93
2019-02-25T10:20:56.366Z,2.73
2019-02-25T10:23:24.463Z,2.93
2019-02-25T10:25:52.510Z,2.80
2019-02-25T10:28:20.599Z,2.77
2019-02-25T10:30:52.789Z,2.87
2019-02-25T10:33:18.495Z,2.77
2019-02-25T10:35:46.654Z,3.33
2019-02-25T10:38:14.760Z,3.00
2019-02-25T10:40:43.380Z,3.37
2019-02-25T10:43:12.656Z,4.60
2019-02-25T10:45:41.158Z,3.63
2019-02-25T10:48:10.528Z,4.30
2019-02-25T10:50:40.573Z,3.00
2019-02-25T10:53:08.410Z,2.53
2019-02-25T10:55:39.932Z,2.87
2019-02-25T10:58:09.498Z,3.33
2019-02-25T11:00:39.440Z,3.00
2019-02-25T11:03:07.454Z,2.87
2019-02-25T11:05:35.538Z,2.53
2019-02-25T11:08:06.959Z,2.23
2019-02-25T11:10:36.742Z,2.47
2019-02-25T11:13:04.842Z,2.20
2019-02-25T11:15:34.510Z,2.03
2019-02-25T11:18:02.618Z,2.10
2019-02-25T11:20:31.846Z,1.80
2019-02-25T11:23:00.523Z,2.00
2019-02-25T11:25:30.175Z,1.90
2019-02-25T11:27:58.370Z,1.87
2019-02-25T11:30:26.518Z,1.80
2019-02-25T11:32:56.154Z,1.67
2019-02-25T11:35:24.413Z,2.00
2019-02-25T11:37:54.282Z,1.83
2019-02-25T11:40:22.343Z,1.60
2019-02-25T11:42:50.472Z,1.53
2019-02-25T11:45:19.508Z,1.67
2019-02-25T11:47:47.672Z,1.90
2019-02-25T11:50:16.732Z,1.80
2019-02-25T11:52:44.879Z,1.53
2019-02-25T11:55:13.532Z,1.80
2019-02-25T11:57:41.672Z,1.50
2019-02-25T12:00:29.500Z,1.77
2019-02-25T12:02:57.579Z,2.37
2019-02-25T12:05:25.654Z,1.80
2019-02-25T12:07:53.742Z,1.40
2019-02-25T12:10:21.924Z,1.30
2019-02-25T12:12:50.014Z,1.60
2019-02-25T12:15:18.775Z,1.27
2019-02-25T12:17:46.875Z,1.40
2019-02-25T12:20:15.018Z,1.33
2019-02-25T12:22:43.075Z,1.50
2019-02-25T12:25:15.447Z,1.50
2019-02-25T12:27:44.170Z,1.40
2019-02-25T12:30:14.011Z,1.50
2019-02-25T12:32:42.151Z,1.47
2019-02-25T12:35:10.667Z,1.60
2019-02-25T12:37:38.788Z,1.30
2019-02-25T12:40:08.273Z,1.40
2019-02-25T12:42:36.378Z,1.70
2019-02-25T12:45:05.796Z,1.30
2019-02-25T12:47:33.945Z,1.30
2019-02-25T12:50:02.040Z,1.23
2019-02-25T12:52:30.163Z,1.43
2019-02-25T12:54:58.284Z,1.40
2019-02-25T12:57:26.431Z,1.50
2019-02-25T12:59:54.569Z,1.93
2019-02-25T13:02:22.685Z,1.83
2019-02-25T13:04:50.798Z,1.43
2019-02-25T13:07:18.942Z,1.20
2019-02-25T13:09:47.060Z,1.53
2019-02-25T13:12:15.233Z,1.30
2019-02-25T13:14:43.393Z,1.17
2019-02-25T13:17:11.682Z,1.20
2019-02-25T13:19:40.018Z,1.37
2019-02-25T13:22:08.178Z,1.20
2019-02-25T13:24:37.420Z,1.10
2019-02-25T13:27:08.017Z,1.20
2019-02-25T13:29:36.042Z,1.20
2019-02-25T13:32:04.237Z,1.60
2019-02-25T13:34:32.436Z,0.90
2019-02-25T13:37:00.607Z,1.30
2019-02-25T13:39:28.744Z,1.17
2019-02-25T13:41:56.963Z,1.20
2019-02-25T13:44:25.135Z,1.30
2019-02-25T13:46:53.233Z,1.20
2019-02-25T13:49:21.411Z,1.30
2019-02-25T13:51:49.600Z,1.20
2019-02-25T13:54:17.813Z,0.97
2019-02-25T13:56:45.990Z,1.07
2019-02-25T13:59:14.287Z,0.70
2019-02-25T14:01:42.485Z,1.00
2019-02-25T14:04:10.692Z,1.00
2019-02-25T14:06:38.865Z,1.33
2019-02-25T14:09:07.346Z,0.83
2019-02-25T14:11:35.620Z,0.87
2019-02-25T14:14:03.797Z,1.20
2019-02-25T14:16:31.939Z,0.80
2019-02-25T14:19:00.238Z,0.90
2019-02-25T14:21:28.424Z,0.90
2019-02-25T14:23:57.594Z,1.07
2019-02-25T14:26:26.436Z,1.00
2019-02-25T14:28:54.612Z,0.80
2019-02-25T14:31:22.979Z,0.90
2019-02-25T14:33:52.321Z,1.10
2019-02-25T14:36:20.607Z,0.97
2019-02-25T14:38:48.736Z,0.80
2019-02-25T14:41:18.540Z,0.60
2019-02-25T14:43:49.213Z,0.63
2019-02-25T14:46:21.435Z,0.80
2019-02-25T14:48:46.899Z,0.70
2019-02-25T14:51:15.158Z,1.10
2019-02-25T14:53:44.712Z,3.10
2019-02-25T14:56:13.134Z,1.97
2019-02-25T14:58:43.052Z,6.43
2019-02-25T15:01:11.147Z,12.57
2019-02-25T15:03:39.243Z,3.77
2019-02-25T15:06:07.351Z,2.10
2019-02-25T15:08:35.532Z,3.63
2019-02-25T15:11:04.927Z,5.43
2019-02-25T15:13:34.995Z,2.80
2019-02-25T15:16:03.364Z,4.27
2019-02-25T15:18:31.615Z,2.97
2019-02-25T15:21:02.085Z,4.00
2019-02-25T15:23:29.803Z,5.93
2019-02-25T15:26:05.203Z,2.13
2019-02-25T15:28:27.845Z,3.20
2019-02-25T15:30:55.977Z,3.10
2019-02-25T15:33:24.145Z,2.27
2019-02-25T15:35:52.400Z,4.77
2019-02-25T15:38:20.579Z,2.37
2019-02-25T15:40:48.766Z,3.67
2019-02-25T15:43:20.603Z,3.03
2019-02-25T15:45:46.742Z,3.33
2019-02-25T15:48:18.668Z,6.30
2019-02-25T15:50:48.501Z,2.93
2019-02-25T15:53:17.264Z,3.87
2019-02-25T15:55:45.508Z,2.57
2019-02-25T15:58:14.365Z,4.47
2019-02-25T16:00:43.607Z,5.90
2019-02-25T16:03:13.740Z,6.23
2019-02-25T16:05:41.633Z,3.30
2019-02-25T16:08:10.741Z,4.17
2019-02-25T16:10:38.920Z,3.40
2019-02-25T16:13:11.079Z,4.20
2019-02-25T16:15:37.357Z,3.60
2019-02-25T16:18:05.531Z,5.17
2019-02-25T16:20:33.631Z,3.43
2019-02-25T16:23:02.803Z,4.53
2019-02-25T16:25:34.012Z,6.80
2019-02-25T16:28:02.261Z,9.87
2019-02-25T16:30:30.832Z,8.17
2019-02-25T16:33:00.003Z,4.27
2019-02-25T16:35:29.152Z,6.47
2019-02-25T16:37:57.578Z,5.73
2019-02-25T16:40:28.536Z,7.03
2019-02-25T16:42:59.403Z,5.80
2019-02-25T16:45:32.367Z,5.50
2019-02-25T16:47:56.922Z,5.00
2019-02-25T16:50:25.102Z,5.20
2019-02-25T16:52:53.204Z,5.20
2019-02-25T16:55:22.661Z,5.07
2019-02-25T16:57:52.003Z,4.60
2019-02-25T17:00:24.844Z,5.00
2019-02-25T17:02:51.747Z,5.97
2019-02-25T17:05:20.054Z,5.57
2019-02-25T17:07:48.995Z,5.77
2019-02-25T17:10:19.401Z,5.80
2019-02-25T17:12:49.922Z,6.03
2019-02-25T17:15:18.514Z,6.90
2019-02-25T17:17:46.654Z,6.20
2019-02-25T17:20:18.144Z,6.17
2019-02-25T17:22:49.758Z,5.90
2019-02-25T17:25:17.994Z,5.53
2019-02-25T17:27:46.168Z,5.30
2019-02-25T17:30:24.835Z,5.30
2019-02-25T17:32:53.096Z,5.33
2019-02-25T17:35:24.172Z,5.47
2019-02-25T17:37:53.322Z,6.00
2019-02-25T17:40:21.947Z,6.15
2019-02-25T17:42:51.724Z,5.33
2019-02-25T17:45:22.455Z,4.83
2019-02-25T17:47:58.286Z,5.13
2019-02-25T17:50:21.046Z,5.33
2019-02-25T17:52:49.227Z,5.57
2019-02-25T17:55:18.361Z,5.40
2019-02-25T17:57:46.630Z,5.53
2019-02-25T18:00:17.762Z,5.97
2019-02-25T18:02:45.940Z,5.07
2019-02-25T18:05:16.262Z,5.10
2019-02-25T18:07:44.793Z,5.60
2019-02-25T18:10:14.274Z,6.17
2019-02-25T18:12:42.439Z,6.27
2019-02-25T18:15:21.994Z,8.00
2019-02-25T18:17:51.477Z,7.87
2019-02-25T18:20:21.440Z,8.40
2019-02-25T18:22:51.012Z,7.93
2019-02-25T18:25:20.525Z,9.27
2019-02-25T18:27:50.096Z,8.90
2019-02-25T18:30:21.526Z,7.53
2019-02-25T18:32:50.521Z,68.87
2019-02-25T18:35:21.161Z,44.37
2019-02-25T18:37:49.317Z,18.53
2019-02-25T18:40:19.018Z,10.23
2019-02-25T18:42:48.265Z,10.40
2019-02-25T18:45:20.769Z,14.73
2019-02-25T18:47:49.290Z,6.60
2019-02-25T18:50:21.707Z,7.60
2019-02-25T18:52:52.903Z,5.83
2019-02-25T18:55:24.734Z,6.67
2019-02-25T18:57:53.681Z,6.20
2019-02-25T19:00:26.381Z,5.67
2019-02-25T19:02:56.266Z,6.93
2019-02-25T19:05:25.403Z,7.60
2019-02-25T19:07:55.504Z,7.40
2019-02-25T19:10:25.230Z,8.00
2019-02-25T19:12:54.648Z,7.50
2019-02-25T19:15:24.166Z,6.83
2019-02-25T19:17:54.233Z,6.87
2019-02-25T19:20:22.147Z,19.70
2019-02-25T19:22:50.239Z,7.07
2019-02-25T19:25:20.872Z,5.17
2019-02-25T19:27:50.128Z,6.50
2019-02-25T19:30:19.768Z,6.30
2019-02-25T19:32:48.590Z,5.63
2019-02-25T19:35:16.791Z,6.00
2019-02-25T19:37:46.736Z,5.97
2019-02-25T19:40:21.858Z,8.00
2019-02-25T19:42:51.523Z,6.73
2019-02-25T19:45:19.415Z,6.73
2019-02-25T19:47:47.542Z,5.17
2019-02-25T19:50:19.198Z,4.63
2019-02-25T19:52:47.278Z,5.23
2019-02-25T19:55:17.726Z,5.73
2019-02-25T19:57:45.237Z,5.60
2019-02-25T20:00:27.453Z,6.73
2019-02-25T20:03:05.053Z,5.90
2019-02-25T20:05:26.294Z,5.93
2019-02-25T20:07:54.810Z,5.70
2019-02-25T20:10:23.019Z,5.77
2019-02-25T20:12:53.194Z,5.97
2019-02-25T20:15:25.014Z,6.43
2019-02-25T20:17:53.319Z,6.33
2019-02-25T20:20:21.862Z,5.73
2019-02-25T20:22:49.919Z,6.30
2019-02-25T20:25:19.390Z,5.27
2019-02-25T20:27:48.147Z,6.77
2019-02-25T20:30:21.281Z,6.80
2019-02-25T20:32:49.376Z,7.63
2019-02-25T20:35:19.743Z,7.47
2019-02-25T20:37:51.013Z,7.27
2019-02-25T20:40:21.225Z,7.67
2019-02-25T20:42:50.895Z,8.50
2019-02-25T20:45:21.074Z,9.07
2019-02-25T20:47:50.114Z,8.47
2019-02-25T20:50:19.454Z,7.17
2019-02-25T20:52:47.535Z,7.00
2019-02-25T20:55:15.607Z,6.93
2019-02-25T20:57:43.952Z,7.17
2019-02-25T21:00:15.463Z,8.30
2019-02-25T21:02:43.498Z,7.43
2019-02-25T21:05:13.900Z,6.70
2019-02-25T21:07:41.370Z,7.27
2019-02-25T21:10:11.947Z,6.93
2019-02-25T21:12:40.028Z,6.40
2019-02-25T21:15:14.637Z,7.57
2019-02-25T21:17:42.710Z,7.30
2019-02-25T21:20:11.938Z,7.00
2019-02-25T21:22:40.027Z,9.20
2019-02-25T21:25:09.633Z,7.80
2019-02-25T21:27:40.835Z,8.70
2019-02-25T21:30:09.059Z,10.67
2019-02-25T21:32:37.198Z,10.80
2019-02-25T21:35:07.042Z,10.63
2019-02-25T21:37:35.117Z,8.83
2019-02-25T21:40:05.115Z,8.90
2019-02-25T21:42:33.729Z,8.93
2019-02-25T21:45:02.372Z,8.43
2019-02-25T21:47:31.247Z,8.13
2019-02-25T21:50:01.270Z,6.83
2019-02-25T21:52:32.908Z,8.17
2019-02-25T21:55:02.342Z,7.00
2019-02-25T21:57:31.336Z,8.60
2019-02-25T22:00:00.972Z,7.17
2019-02-25T22:02:29.580Z,7.40
2019-02-25T22:04:57.696Z,6.60
2019-02-25T22:07:27.298Z,6.60
2019-02-25T22:09:55.607Z,6.87
2019-02-25T22:12:23.663Z,6.73
2019-02-25T22:14:52.192Z,6.40
2019-02-25T22:17:22.404Z,6.77
2019-02-25T22:19:50.284Z,6.50
2019-02-25T22:22:19.355Z,6.23
2019-02-25T22:24:48.181Z,6.70
2019-02-25T22:27:16.800Z,6.53
2019-02-25T22:29:46.066Z,6.40
2019-02-25T22:32:14.138Z,7.07
2019-02-25T22:34:42.227Z,6.43
2019-02-25T22:37:12.496Z,7.50
2019-02-25T22:39:40.900Z,7.57
2019-02-25T22:42:09.629Z,7.73
2019-02-25T22:44:38.961Z,8.13
2019-02-25T22:47:09.229Z,7.40
2019-02-25T22:49:36.816Z,7.73
2019-02-25T22:52:05.715Z,7.80
2019-02-25T22:54:37.100Z,7.30
2019-02-25T22:57:04.494Z,7.27
2019-02-25T22:59:34.964Z,7.23
2019-02-25T23:02:02.452Z,7.27
2019-02-25T23:04:30.534Z,7.57
2019-02-25T23:06:58.607Z,7.70
2019-02-25T23:09:26.686Z,7.97
2019-02-25T23:11:55.504Z,6.30
2019-02-25T23:14:23.720Z,7.20
2019-02-25T23:16:51.802Z,7.23
2019-02-25T23:19:20.340Z,7.37
2019-02-25T23:21:49.698Z,6.67
2019-02-25T23:24:17.775Z,6.63
2019-02-25T23:26:45.851Z,6.70
2019-02-25T23:29:15.522Z,6.63
2019-02-25T23:31:46.434Z,7.00
2019-02-25T23:34:15.265Z,6.57
2019-02-25T23:36:44.941Z,6.73
2019-02-25T23:39:17.117Z,6.40
2019-02-25T23:41:43.929Z,7.07
2019-02-25T23:44:13.318Z,6.27
2019-02-25T23:46:42.554Z,7.17
2019-02-25T23:49:10.623Z,6.83
2019-02-25T23:51:39.464Z,7.03
2019-02-25T23:54:11.838Z,6.80
2019-02-25T23:56:38.306Z,6.37
2019-02-25T23:59:06.417Z,6.63
